Time;durP1;ratioP1;P1;durP2;ratioP2;P2;SDS_P1;SDS_P2;PMS_P1;PMS_P2;Temp;Humidity;BMP_temperature;BMP_pressure;BME280_temperature;BME280_humidity;BME280_pressure;Samples;Min_cycle;Max_cycle;Signal;HPM_P1;HPM_P2
2022/06/06 00:01:51;;;;;;;;;;;;;;;16.31;79.41;101030.66;5021263;28;19929;-82
2022/06/06 00:04:17;;;;;;;;;;;;;;;16.27;79.31;101016.81;5037109;28;19929;-82
2022/06/06 00:06:43;;;;;;;;;;;;;;;16.25;79.29;101010.78;5023469;28;19936;-82
2022/06/06 00:09:09;;;;;;;;;;;;;;;16.28;79.27;101021.16;5025366;28;19921;-82
2022/06/06 00:11:35;;;;;;;;;;;;;;;16.25;79.66;101025.66;5025830;28;19932;-82
2022/06/06 00:14:01;;;;;;;;;;;;;;;16.24;78.95;101021.31;5026465;28;20342;-76
2022/06/06 00:16:27;;;;;;;;;;;;;;;16.30;78.46;101026.31;5027733;28;19933;-82
2022/06/06 00:18:53;;;;;;;;;;;;;;;16.22;79.00;101020.53;5024264;28;20940;-81
2022/06/06 00:21:18;;;;;;;;;;;;;;;16.25;78.96;101017.78;5021357;28;19921;-80
2022/06/06 00:23:43;;;;;;;;;;;;;;;16.22;79.81;101012.66;5020723;28;19921;-80
2022/06/06 00:26:10;;;;;;;;;;;;;;;16.23;80.16;101014.34;5029243;28;19960;-80
2022/06/06 00:28:36;;;;;;;;;;;;;;;16.22;79.06;101010.91;5026127;28;19925;-80
2022/06/06 00:34:48;;;;;;;;;;;;;;;16.20;78.75;101010.09;5032718;28;19921;-81
2022/06/06 00:36:31;;;;;;;;;;;;;;;16.14;79.52;101002.47;5018353;28;19932;-77
2022/06/06 00:38:56;;;;;;;;;;;;;;;16.16;79.71;101008.53;5026279;28;20278;-77
2022/06/06 00:41:21;;;;;;;;;;;;;;;16.17;80.04;101017.22;5026631;28;19925;-77
2022/06/06 00:44:01;;;;;;;;;;;;;;;16.19;79.08;101007.56;5029936;28;20400;-77
2022/06/06 00:46:28;;;;;;;;;;;;;;;16.12;79.81;101012.19;5026054;28;20067;-77
2022/06/06 00:48:54;;;;;;;;;;;;;;;16.13;79.80;101016.53;5027018;28;20389;-77
2022/06/06 00:51:19;;;;;;;;;;;;;;;16.09;79.37;101009.69;5024982;28;19932;-77
2022/06/06 00:53:52;;;;;;;;;;;;;;;16.08;79.13;101007.97;5030238;28;19952;-77
2022/06/06 00:56:18;;;;;;;;;;;;;;;16.02;79.35;101013.44;5027471;28;19929;-77
2022/06/06 00:58:44;;;;;;;;;;;;;;;16.01;79.41;101014.38;5030792;28;20386;-77
2022/06/06 01:01:10;;;;;;;;;;;;;;;16.05;78.87;101015.09;5031458;28;19936;-77
2022/06/06 01:03:38;;;;;;;;;;;;;;;15.99;79.52;101010.13;5016903;28;19929;-77
2022/06/06 01:06:04;;;;;;;;;;;;;;;16.00;78.86;101003.94;5021700;28;19928;-82
2022/06/06 01:08:31;;;;;;;;;;;;;;;16.02;77.84;101013.44;5019000;28;19928;-77
2022/06/06 01:10:56;;;;;;;;;;;;;;;15.95;78.35;101006.75;5027415;28;19937;-77
2022/06/06 01:13:25;;;;;;;;;;;;;;;15.96;78.30;101013.69;5027409;28;19920;-77
2022/06/06 01:16:06;;;;;;;;;;;;;;;15.94;77.83;101013.75;5026152;28;19953;-77
2022/06/06 01:18:38;;;;;;;;;;;;;;;15.93;77.42;101013.81;5019467;28;21000;-77
2022/06/06 01:21:15;;;;;;;;;;;;;;;15.97;76.43;101011.03;5049591;28;19925;-77
2022/06/06 01:24:16;;;;;;;;;;;;;;;16.00;76.15;101014.44;5024029;28;19922;-77
2022/06/06 01:27:00;;;;;;;;;;;;;;;15.96;75.37;101008.44;4970663;28;20505;-77
2022/06/06 01:29:29;;;;;;;;;;;;;;;16.03;74.54;101019.53;5027413;28;19927;-77
2022/06/06 01:31:58;;;;;;;;;;;;;;;15.88;76.24;101019.25;5023838;28;20310;-77
2022/06/06 01:34:25;;;;;;;;;;;;;;;15.84;76.43;101025.50;5032575;28;20358;-82
2022/06/06 01:36:52;;;;;;;;;;;;;;;15.83;76.69;101021.19;5034701;28;20019;-82
2022/06/06 01:39:18;;;;;;;;;;;;;;;15.87;76.34;101021.91;5031356;28;20398;-81
2022/06/06 01:41:44;;;;;;;;;;;;;;;15.87;75.81;101012.28;5029857;28;19921;-82
2022/06/06 01:44:22;;;;;;;;;;;;;;;15.77;76.28;101024.03;5030026;28;20527;-80
2022/06/06 01:46:47;;;;;;;;;;;;;;;15.84;75.92;101022.88;5033961;28;19976;-80
2022/06/06 01:49:14;;;;;;;;;;;;;;;15.90;76.04;101019.16;5036313;28;20533;-82
2022/06/06 01:51:40;;;;;;;;;;;;;;;15.85;75.44;101018.50;5032143;28;19925;-81
2022/06/06 01:54:06;;;;;;;;;;;;;;;15.84;74.87;101019.41;5032059;28;19921;-82
2022/06/06 01:56:36;;;;;;;;;;;;;;;15.83;75.31;101021.19;5029282;28;19929;-77
2022/06/06 01:59:02;;;;;;;;;;;;;;;15.77;75.70;101023.19;5055268;28;19925;-76
2022/06/06 02:01:27;;;;;;;;;;;;;;;15.76;76.07;101011.84;5033465;28;20557;-77
2022/06/06 02:03:53;;;;;;;;;;;;;;;15.78;75.61;101012.63;5024691;28;20019;-77
2022/06/06 02:06:18;;;;;;;;;;;;;;;15.72;76.19;101012.84;5036826;28;19925;-77
2022/06/06 02:09:01;;;;;;;;;;;;;;;15.62;76.89;101006.25;5028938;28;20621;-77
2022/06/06 02:11:28;;;;;;;;;;;;;;;15.68;76.49;101000.78;5031740;28;20053;-77
2022/06/06 02:13:53;;;;;;;;;;;;;;;15.66;76.27;100999.16;5033833;28;20538;-77
2022/06/06 02:16:18;;;;;;;;;;;;;;;15.64;76.39;101009.66;5028288;28;19932;-82
2022/06/06 02:18:44;;;;;;;;;;;;;;;15.65;76.09;101018.38;5027140;28;19925;-77
2022/06/06 02:21:09;;;;;;;;;;;;;;;15.66;76.29;101020.94;5031902;28;20012;-77
2022/06/06 02:23:35;;;;;;;;;;;;;;;15.65;76.57;101013.16;5017638;28;19973;-77
2022/06/06 02:26:00;;;;;;;;;;;;;;;15.73;75.05;101011.94;5036717;28;20549;-77
2022/06/06 02:28:26;;;;;;;;;;;;;;;15.76;74.87;101011.00;5025848;28;19928;-77
2022/06/06 02:30:51;;;;;;;;;;;;;;;15.70;74.52;101003.34;5033481;28;19932;-82
2022/06/06 02:33:17;;;;;;;;;;;;;;;15.70;74.87;100993.72;5030736;28;19921;-77
2022/06/06 02:35:42;;;;;;;;;;;;;;;15.74;73.71;100997.97;5030509;28;20425;-77
2022/06/06 02:38:09;;;;;;;;;;;;;;;15.71;73.73;101002.44;5029388;28;19929;-77
2022/06/06 02:40:34;;;;;;;;;;;;;;;15.76;73.40;100995.28;5040180;28;19929;-77
2022/06/06 02:43:00;;;;;;;;;;;;;;;15.66;73.77;100992.13;5023120;28;19936;-77
2022/06/06 02:45:25;;;;;;;;;;;;;;;15.66;74.03;100993.91;5020884;28;19922;-80
2022/06/06 02:47:52;;;;;;;;;;;;;;;15.66;74.28;100983.44;5026383;28;19925;-77
2022/06/06 02:50:20;;;;;;;;;;;;;;;15.70;73.70;100985.88;5036039;28;19925;-77
2022/06/06 02:52:45;;;;;;;;;;;;;;;15.67;74.18;100985.13;5028202;28;19925;-77
2022/06/06 02:55:11;;;;;;;;;;;;;;;15.57;74.92;100989.03;5030029;28;19929;-77
2022/06/06 02:57:46;;;;;;;;;;;;;;;15.56;74.57;100996.03;5025898;28;19981;-76
2022/06/06 03:00:14;;;;;;;;;;;;;;;15.50;74.98;101005.88;5029339;28;19921;-82
2022/06/06 03:02:40;;;;;;;;;;;;;;;15.54;74.90;101010.09;5030388;28;20382;-80
2022/06/06 03:05:06;;;;;;;;;;;;;;;15.51;74.83;101007.59;5030414;28;19932;-80
2022/06/06 03:07:32;;;;;;;;;;;;;;;15.48;75.17;100999.84;5022328;28;19921;-81
2022/06/06 03:10:18;;;;;;;;;;;;;;;15.49;74.79;100993.66;5028947;28;19952;-82
2022/06/06 03:12:58;;;;;;;;;;;;;;;15.56;74.60;101006.50;5027050;28;20362;-82
2022/06/06 03:15:42;;;;;;;;;;;;;;;15.54;73.90;101010.09;5020756;28;19921;-77
2022/06/06 03:21:03;;;;;;;;;;;;;;;15.59;72.89;101013.38;5034327;28;19936;-76
2022/06/06 03:23:41;;;;;;;;;;;;;;;15.53;73.42;101019.69;5026204;28;19929;-80
2022/06/06 03:26:11;;;;;;;;;;;;;;;15.62;72.19;101011.50;5031286;28;19925;-76
2022/06/06 03:28:42;;;;;;;;;;;;;;;15.67;72.31;101013.94;5027196;28;20028;-80
2022/06/06 03:31:08;;;;;;;;;;;;;;;15.63;72.65;101023.66;5034441;28;19928;-82
2022/06/06 03:33:42;;;;;;;;;;;;;;;15.56;73.43;101023.97;5027707;28;20398;-82
2022/06/06 03:36:31;;;;;;;;;;;;;;;15.57;73.29;101031.75;5031552;28;19921;-82
2022/06/06 03:38:56;;;;;;;;;;;;;;;15.57;73.52;101038.78;5017023;28;20011;-77
2022/06/06 03:41:35;;;;;;;;;;;;;;;15.50;73.67;101038.13;5036692;28;20434;-76
2022/06/06 03:44:13;;;;;;;;;;;;;;;15.54;73.77;101034.47;5030861;28;20665;-77
2022/06/06 03:46:58;;;;;;;;;;;;;;;15.51;74.04;101029.34;5024382;28;19968;-82
2022/06/06 03:49:24;;;;;;;;;;;;;;;15.40;74.35;101035.00;5030267;28;20654;-82
2022/06/06 03:51:49;;;;;;;;;;;;;;;15.46;73.53;101033.06;5026451;28;19986;-77
2022/06/06 03:54:25;;;;;;;;;;;;;;;15.43;74.27;101036.66;5026501;28;20268;-77
2022/06/06 03:57:06;;;;;;;;;;;;;;;15.45;74.28;101047.06;5025379;28;19932;-82
2022/06/06 03:59:32;;;;;;;;;;;;;;;15.47;73.85;101046.09;5024834;28;19932;-82
2022/06/06 04:02:00;;;;;;;;;;;;;;;15.41;74.12;101054.19;5027155;28;20383;-77
2022/06/06 04:04:26;;;;;;;;;;;;;;;15.42;74.20;101045.44;5031356;28;19921;-76
2022/06/06 04:06:55;;;;;;;;;;;;;;;15.42;74.14;101053.28;5021099;28;20495;-77
2022/06/06 04:09:21;;;;;;;;;;;;;;;15.49;72.78;101048.66;5021300;28;20067;-77
2022/06/06 04:12:06;;;;;;;;;;;;;;;15.46;73.96;101044.38;5029263;28;20462;-76
2022/06/06 04:14:34;;;;;;;;;;;;;;;15.46;73.17;101036.53;4998870;28;19972;-82
2022/06/06 04:17:06;;;;;;;;;;;;;;;15.50;73.17;101045.13;5028609;28;20055;-82
2022/06/06 04:19:32;;;;;;;;;;;;;;;15.56;72.66;101045.78;5023710;28;19931;-77
2022/06/06 04:22:16;;;;;;;;;;;;;;;15.61;72.35;101037.72;5026979;28;19929;-80
2022/06/06 04:24:44;;;;;;;;;;;;;;;15.62;72.67;101042.06;5026786;28;19921;-76
2022/06/06 04:27:21;;;;;;;;;;;;;;;15.62;72.34;101048.16;5027221;28;19920;-77
2022/06/06 04:29:46;;;;;;;;;;;;;;;15.62;72.66;101042.06;5027948;28;19976;-76
2022/06/06 04:32:23;;;;;;;;;;;;;;;15.68;71.55;101036.59;5030947;28;19955;-76
2022/06/06 04:35:07;;;;;;;;;;;;;;;15.68;72.65;101033.97;5027541;28;20016;-76
2022/06/06 04:37:42;;;;;;;;;;;;;;;15.70;71.57;101040.88;5022535;28;20317;-82
2022/06/06 04:40:35;;;;;;;;;;;;;;;15.65;72.30;101047.19;5022928;28;19925;-81
2022/06/06 04:43:10;;;;;;;;;;;;;;;15.70;72.30;101047.84;5019516;28;19921;-81
2022/06/06 04:45:40;;;;;;;;;;;;;;;15.68;72.61;101052.31;5021837;28;20043;-77
2022/06/06 04:48:06;;;;;;;;;;;;;;;15.66;72.29;101054.97;5029832;28;20008;-76
2022/06/06 04:50:32;;;;;;;;;;;;;;;15.69;72.05;101061.88;5029920;28;20570;-77
2022/06/06 04:53:03;;;;;;;;;;;;;;;15.72;71.55;101062.59;5025434;28;19925;-77
2022/06/06 04:55:32;;;;;;;;;;;;;;;15.73;71.37;101069.56;5030482;28;19998;-76
2022/06/06 04:57:58;;;;;;;;;;;;;;;15.76;72.09;101072.09;5013985;28;19932;-77
2022/06/06 05:00:26;;;;;;;;;;;;;;;15.81;71.60;101072.75;5023633;28;19940;-77
2022/06/06 05:02:51;;;;;;;;;;;;;;;15.83;70.70;101067.50;5024632;28;19948;-76
2022/06/06 05:05:17;;;;;;;;;;;;;;;15.81;71.15;101075.38;5041682;28;19964;-80
2022/06/06 05:08:01;;;;;;;;;;;;;;;15.81;72.00;101083.25;5026436;28;19932;-80
2022/06/06 05:10:45;;;;;;;;;;;;;;;15.73;71.75;101082.66;5020514;28;19957;-80
2022/06/06 05:13:12;;;;;;;;;;;;;;;15.75;71.43;101082.66;5050168;28;19932;-80
2022/06/06 05:15:38;;;;;;;;;;;;;;;15.73;70.30;101082.66;5020543;28;19936;-80
2022/06/06 05:18:16;;;;;;;;;;;;;;;15.65;72.53;101086.47;5027830;28;20003;-81
2022/06/06 05:20:52;;;;;;;;;;;;;;;15.69;72.44;101091.53;5022028;28;19929;-80
2022/06/06 05:23:36;;;;;;;;;;;;;;;15.78;70.20;101090.34;5024330;28;20298;-80
2022/06/06 05:26:11;;;;;;;;;;;;;;;15.76;69.34;101100.03;5029719;28;19925;-80
2022/06/06 05:28:59;;;;;;;;;;;;;;;15.72;69.70;101091.41;5027447;28;19933;-80
2022/06/06 05:31:36;;;;;;;;;;;;;;;15.80;69.33;101093.78;5025519;28;19932;-77
2022/06/06 05:34:05;;;;;;;;;;;;;;;15.77;69.64;101093.91;5029150;28;20008;-75
2022/06/06 05:36:30;;;;;;;;;;;;;;;15.88;69.14;101104.84;5027988;28;20456;-77
2022/06/06 05:39:21;;;;;;;;;;;;;;;15.90;68.02;101098.63;5029971;28;19917;-76
2022/06/06 05:41:49;;;;;;;;;;;;;;;15.91;69.00;101100.34;5027179;28;19932;-82
2022/06/06 05:44:43;;;;;;;;;;;;;;;15.96;69.23;101097.53;5021140;28;19925;-80
2022/06/06 05:47:09;;;;;;;;;;;;;;;15.96;68.97;101093.16;5026147;28;20633;-80
2022/06/06 05:49:52;;;;;;;;;;;;;;;15.94;68.58;101088.88;5049829;28;19927;-80
2022/06/06 05:52:21;;;;;;;;;;;;;;;15.94;67.79;101094.97;5045790;28;20337;-80
2022/06/06 05:54:53;;;;;;;;;;;;;;;15.89;67.22;101096.94;5034266;28;19925;-80
2022/06/06 05:57:21;;;;;;;;;;;;;;;15.84;67.51;101101.47;5017882;28;20294;-77
2022/06/06 05:59:57;;;;;;;;;;;;;;;15.84;66.62;101109.31;5019157;28;19955;-77
2022/06/06 06:02:41;;;;;;;;;;;;;;;15.73;67.88;101108.00;5024685;28;19933;-76
2022/06/06 06:05:06;;;;;;;;;;;;;;;15.70;66.30;101105.47;5014512;28;19972;-77
2022/06/06 06:07:37;;;;;;;;;;;;;;;15.78;67.15;101100.84;5021802;28;19972;-77
2022/06/06 06:10:03;;;;;;;;;;;;;;;15.65;67.63;101103.03;5023597;28;19967;-77
2022/06/06 06:12:31;;;;;;;;;;;;;;;15.74;67.16;101100.13;5022069;28;19921;-77
2022/06/06 06:15:03;;;;;;;;;;;;;;;15.74;68.11;101100.13;5030468;28;20259;-81
2022/06/06 06:17:31;;;;;;;;;;;;;;;15.76;65.15;101093.06;5022206;28;19925;-82
2022/06/06 06:20:10;;;;;;;;;;;;;;;15.81;65.58;101101.59;5027910;28;19921;-81
2022/06/06 06:22:38;;;;;;;;;;;;;;;15.83;64.85;101110.25;5025908;28;20323;-80
2022/06/06 06:25:05;;;;;;;;;;;;;;;15.83;64.30;101110.25;5032231;28;20341;-80
2022/06/06 06:27:34;;;;;;;;;;;;;;;15.87;63.97;101108.34;5026924;28;19944;-80
2022/06/06 06:29:59;;;;;;;;;;;;;;;15.90;65.15;101111.72;5023604;28;19995;-77
2022/06/06 06:32:37;;;;;;;;;;;;;;;15.94;65.13;101115.09;5026412;28;20554;-77
2022/06/06 06:35:13;;;;;;;;;;;;;;;15.97;64.08;101107.97;5026736;28;19932;-82
2022/06/06 06:37:47;;;;;;;;;;;;;;;15.95;63.70;101120.28;5032808;28;20028;-82
2022/06/06 06:40:13;;;;;;;;;;;;;;;15.93;62.62;101121.22;5032426;28;19950;-77
2022/06/06 06:43:10;;;;;;;;;;;;;;;16.01;61.53;101120.97;5033251;28;19921;-80
2022/06/06 06:45:50;;;;;;;;;;;;;;;16.10;62.65;101124.09;4999388;28;20032;-80
2022/06/06 06:48:23;;;;;;;;;;;;;;;16.12;61.44;101124.88;5030339;28;19983;-80
2022/06/06 06:51:11;;;;;;;;;;;;;;;16.15;61.85;101129.16;5029867;28;19964;-80
2022/06/06 06:53:59;;;;;;;;;;;;;;;16.00;62.63;101124.47;5035956;28;19924;-80
2022/06/06 06:56:25;;;;;;;;;;;;;;;16.08;61.74;101122.41;5035459;28;19963;-80
2022/06/06 06:58:55;;;;;;;;;;;;;;;16.04;62.04;101129.56;5034502;28;19929;-77
2022/06/06 07:01:23;;;;;;;;;;;;;;;16.07;61.03;101118.97;5025974;28;19931;-78
2022/06/06 07:09:41;;;;;;;;;;;;;;;16.04;57.86;101132.19;5028312;28;20036;-81
2022/06/06 07:12:26;;;;;;;;;;;;;;;16.00;55.85;101127.97;5029580;28;20607;-81
2022/06/06 07:14:54;;;;;;;;;;;;;;;16.04;55.61;101119.09;4987290;28;19928;-76
2022/06/06 07:17:21;;;;;;;;;;;;;;;16.07;57.15;101131.22;5026596;28;19952;-76
2022/06/06 07:19:48;;;;;;;;;;;;;;;16.10;58.07;101133.72;5028704;28;20024;-77
2022/06/06 07:22:18;;;;;;;;;;;;;;;16.12;58.41;101130.13;5026679;28;20440;-81
2022/06/06 07:24:45;;;;;;;;;;;;;;;16.09;56.78;101124.13;5027979;28;20530;-81
2022/06/06 07:27:11;;;;;;;;;;;;;;;16.08;56.73;101122.41;5022991;28;20515;-80
2022/06/06 07:29:38;;;;;;;;;;;;;;;16.03;55.78;101116.50;5036291;28;19936;-80
2022/06/06 07:32:12;;;;;;;;;;;;;;;16.07;54.67;101108.47;5025298;28;20356;-77
2022/06/06 07:34:57;;;;;;;;;;;;;;;16.12;55.93;101110.91;5030385;28;19952;-77
2022/06/06 07:37:43;;;;;;;;;;;;;;;16.11;55.78;101104.81;5029367;28;22162;-82
2022/06/06 07:40:10;;;;;;;;;;;;;;;16.14;53.08;101101.22;5024156;28;20228;-80
2022/06/06 07:42:54;;;;;;;;;;;;;;;16.12;55.35;101111.78;5027573;28;19928;-81
2022/06/06 07:45:24;;;;;;;;;;;;;;;16.14;55.33;101112.56;5029895;28;19940;-76
2022/06/06 07:48:05;;;;;;;;;;;;;;;16.14;54.10;101109.94;5024189;28;20003;-77
2022/06/06 07:50:39;;;;;;;;;;;;;;;16.15;55.83;101105.56;5034071;28;19921;-77
2022/06/06 07:53:10;;;;;;;;;;;;;;;16.17;54.78;101098.47;5029955;28;19927;-77
2022/06/06 07:55:41;;;;;;;;;;;;;;;16.22;54.96;101102.66;5026659;28;20019;-77
2022/06/06 07:58:16;;;;;;;;;;;;;;;16.22;55.07;101097.41;5030326;28;19927;-77
2022/06/06 08:00:45;;;;;;;;;;;;;;;16.24;55.54;101100.81;5027345;28;19929;-80
2022/06/06 08:03:20;;;;;;;;;;;;;;;16.26;54.92;101105.97;5026677;28;19917;-80
2022/06/06 08:05:57;;;;;;;;;;;;;;;16.27;54.07;101105.06;5026702;28;20333;-80
2022/06/06 08:08:41;;;;;;;;;;;;;;;16.35;52.80;101105.63;5024149;28;19927;-80
2022/06/06 08:11:27;;;;;;;;;;;;;;;16.41;52.86;101102.75;5026757;28;19929;-77
2022/06/06 08:14:11;;;;;;;;;;;;;;;16.43;54.21;101106.19;5018205;28;19925;-77
2022/06/06 08:16:57;;;;;;;;;;;;;;;16.38;54.69;101102.88;5029772;28;19935;-77
2022/06/06 08:19:41;;;;;;;;;;;;;;;16.44;54.09;101100.00;5034907;28;19924;-76
2022/06/06 08:22:08;;;;;;;;;;;;;;;16.45;54.32;101097.34;5023309;28;19925;-76
2022/06/06 08:24:36;;;;;;;;;;;;;;;16.49;53.37;101096.28;5033872;28;19936;-77
2022/06/06 08:27:03;;;;;;;;;;;;;;;16.52;54.71;101105.84;5040404;28;19921;-80
2022/06/06 08:29:30;;;;;;;;;;;;;;;16.56;55.26;101098.66;5035929;28;20015;-80
2022/06/06 08:31:55;;;;;;;;;;;;;;;16.57;55.18;101098.63;5034505;28;19921;-80
2022/06/06 08:34:21;;;;;;;;;;;;;;;16.61;54.93;101105.44;5040444;28;20005;-80
2022/06/06 08:36:46;;;;;;;;;;;;;;;16.62;52.42;101096.66;5027804;28;19929;-80
2022/06/06 08:39:26;;;;;;;;;;;;;;;16.67;53.12;101093.88;5029104;28;19917;-76
2022/06/06 08:42:07;;;;;;;;;;;;;;;16.68;54.24;101096.41;5056051;28;19972;-76
2022/06/06 08:44:56;;;;;;;;;;;;;;;16.72;52.92;101102.41;5032172;28;20605;-76
2022/06/06 08:47:21;;;;;;;;;;;;;;;16.72;53.54;101099.81;5007951;28;19928;-80
2022/06/06 08:52:58;;;;;;;;;;;;;;;16.76;53.24;101088.28;5021403;28;20433;-80
2022/06/06 08:55:26;;;;;;;;;;;;;;;16.77;54.35;101085.56;5024320;28;19933;-80
2022/06/06 08:58:10;;;;;;;;;;;;;;;16.78;53.34;101084.66;5030606;28;19952;-81
2022/06/06 09:00:43;;;;;;;;;;;;;;;16.82;54.44;101080.13;5026206;28;20011;-81
2022/06/06 09:03:11;;;;;;;;;;;;;;;16.81;52.52;101075.81;5024464;28;19913;-82
2022/06/06 09:05:46;;;;;;;;;;;;;;;16.84;51.40;101063.41;5035546;28;19968;-82
2022/06/06 09:08:30;;;;;;;;;;;;;;;16.82;52.10;101069.63;5027657;28;19932;-82
2022/06/06 09:11:07;;;;;;;;;;;;;;;16.80;52.54;101061.84;5025842;28;19925;-81
2022/06/06 09:13:38;;;;;;;;;;;;;;;16.82;52.03;101053.88;5030529;28;19979;-77
2022/06/06 09:16:22;;;;;;;;;;;;;;;16.77;52.92;101061.97;5027771;28;19980;-81
2022/06/06 09:19:06;;;;;;;;;;;;;;;16.75;53.65;101066.44;5028687;28;19927;-81
2022/06/06 09:21:31;;;;;;;;;;;;;;;16.71;55.38;101064.84;5024866;28;19917;-81
2022/06/06 09:23:57;;;;;;;;;;;;;;;16.71;53.44;101070.09;5025055;28;19939;-81
2022/06/06 09:26:41;;;;;;;;;;;;;;;16.71;53.94;101069.22;5036582;28;19948;-81
2022/06/06 09:29:26;;;;;;;;;;;;;;;16.68;54.18;101064.94;5033892;28;19924;-81
2022/06/06 09:32:00;;;;;;;;;;;;;;;16.68;54.41;101064.06;5010080;28;20004;-81
2022/06/06 09:34:26;;;;;;;;;;;;;;;16.70;53.46;101067.53;5035752;28;19921;-80
2022/06/06 09:37:06;;;;;;;;;;;;;;;16.73;54.66;101068.25;5033006;28;19959;-80
2022/06/06 09:39:31;;;;;;;;;;;;;;;16.77;54.75;101061.97;5028408;28;19986;-80
2022/06/06 09:42:19;;;;;;;;;;;;;;;16.85;56.36;101059.00;5035789;28;19920;-81
2022/06/06 09:45:02;;;;;;;;;;;;;;;16.95;54.84;101050.69;5034330;28;19925;-81
2022/06/06 09:47:40;;;;;;;;;;;;;;;17.03;53.78;101045.97;5029836;28;19944;-81
2022/06/06 09:50:08;;;;;;;;;;;;;;;17.03;54.78;101055.59;5034380;28;19928;-81
2022/06/06 09:53:13;;;;;;;;;;;;;;;17.11;53.28;101048.25;5026720;28;20401;-81
2022/06/06 09:59:02;;;;;;;;;;;;;;;17.05;52.42;101041.50;5032483;28;20305;-81
2022/06/06 10:02:06;;;;;;;;;;;;;;;17.14;54.12;101042.88;5046086;28;19963;-81
2022/06/06 10:04:35;;;;;;;;;;;;;;;17.08;52.19;101040.53;4991661;28;20016;-81
2022/06/06 10:07:25;;;;;;;;;;;;;;;17.06;52.92;101050.22;4996257;28;20045;-80
2022/06/06 10:10:01;;;;;;;;;;;;;;;17.01;52.08;101045.19;5011817;28;20007;-80
2022/06/06 10:12:30;;;;;;;;;;;;;;;16.91;52.66;101051.72;5026360;28;19921;-81
2022/06/06 10:14:58;;;;;;;;;;;;;;;16.81;54.95;101058.31;5021543;28;20019;-81
2022/06/06 10:17:42;;;;;;;;;;;;;;;16.69;56.94;101065.81;5031678;28;19933;-81
2022/06/06 10:20:10;;;;;;;;;;;;;;;16.59;56.43;101067.94;5033000;28;20015;-81
2022/06/06 10:22:50;;;;;;;;;;;;;;;16.68;58.24;101079.81;5033641;28;19925;-80
2022/06/06 10:25:22;;;;;;;;;;;;;;;16.50;64.00;101087.53;5065455;28;19963;-81
2022/06/06 10:27:50;;;;;;;;;;;;;;;16.51;71.93;101091.84;5037578;28;19974;-80
2022/06/06 10:30:16;;;;;;;;;;;;;;;16.16;70.64;101095.03;5032706;28;19960;-81
2022/06/06 10:32:53;;;;;;;;;;;;;;;16.19;71.92;101099.28;5037603;28;19956;-80
2022/06/06 10:35:42;;;;;;;;;;;;;;;15.99;73.79;101091.34;5038347;28;19925;-77
2022/06/06 10:38:30;;;;;;;;;;;;;;;15.90;76.67;101097.75;5017861;28;19990;-79
2022/06/06 10:41:00;;;;;;;;;;;;;;;15.85;76.66;101100.56;5033184;28;19925;-79
2022/06/06 10:43:40;;;;;;;;;;;;;;;15.77;74.58;101109.63;5025625;28;19949;-79
2022/06/06 10:46:14;;;;;;;;;;;;;;;15.78;74.04;101132.28;5030104;28;19979;-79
2022/06/06 10:48:43;;;;;;;;;;;;;;;15.21;74.21;101151.75;5022885;28;19922;-79
2022/06/06 10:54:11;;;;;;;;;;;;;;;15.23;75.46;101156.91;5029206;28;19927;-76
2022/06/06 10:56:48;;;;;;;;;;;;;;;15.33;77.13;101142.63;5026638;28;20136;-76
2022/06/06 10:59:17;;;;;;;;;;;;;;;15.50;76.88;101153.34;5027163;28;20648;-81
2022/06/06 11:01:45;;;;;;;;;;;;;;;15.29;76.02;101146.22;5025336;28;20472;-82
2022/06/06 11:04:13;;;;;;;;;;;;;;;15.45;77.85;101138.72;5026241;28;19921;-81
2022/06/06 11:06:44;;;;;;;;;;;;;;;15.36;78.26;101111.09;5028194;28;20497;-81
2022/06/06 11:09:16;;;;;;;;;;;;;;;15.46;79.65;101106.38;5029065;28;19979;-82
2022/06/06 11:11:41;;;;;;;;;;;;;;;15.45;78.57;101115.16;5030042;28;19925;-81
2022/06/06 11:14:09;;;;;;;;;;;;;;;15.55;80.19;101099.03;5025606;28;19935;-81
2022/06/06 11:16:47;;;;;;;;;;;;;;;15.59;78.26;101100.66;5027404;28;19991;-81
2022/06/06 11:19:16;;;;;;;;;;;;;;;15.69;80.43;101106.41;5022293;28;20006;-79
2022/06/06 11:21:50;;;;;;;;;;;;;;;15.68;80.10;101100.31;5030916;28;19974;-79
2022/06/06 11:24:25;;;;;;;;;;;;;;;15.75;79.44;101106.22;5025134;28;20409;-79
2022/06/06 11:27:09;;;;;;;;;;;;;;;15.80;80.62;101099.03;5028480;28;20508;-79
2022/06/06 11:30:04;;;;;;;;;;;;;;;15.81;79.28;101091.09;5033047;28;19922;-79
2022/06/06 11:32:48;;;;;;;;;;;;;;;15.79;78.42;101092.94;5012835;28;19925;-76
2022/06/06 11:35:27;;;;;;;;;;;;;;;15.86;80.40;101088.31;5023027;28;20007;-76
2022/06/06 11:38:11;;;;;;;;;;;;;;;15.85;79.19;101084.00;5030730;28;20402;-81
2022/06/06 11:40:43;;;;;;;;;;;;;;;15.93;79.21;101084.53;5024412;28;20495;-82
2022/06/06 11:43:27;;;;;;;;;;;;;;;15.90;80.24;101090.75;5047173;28;19925;-81
2022/06/06 11:45:52;;;;;;;;;;;;;;;15.92;78.16;101085.47;5017173;28;19921;-81
2022/06/06 11:48:36;;;;;;;;;;;;;;;15.90;77.08;101082.03;5021761;28;19925;-82
2022/06/06 11:51:32;;;;;;;;;;;;;;;15.88;75.14;101074.25;5049886;28;20394;-82
2022/06/06 11:54:07;;;;;;;;;;;;;;;16.04;74.22;101073.69;5026311;28;20382;-82
2022/06/06 11:56:39;;;;;;;;;;;;;;;15.94;73.70;101076.66;5041927;28;19929;-82
2022/06/06 11:59:31;;;;;;;;;;;;;;;16.08;72.08;101065.63;5044995;28;19956;-82
2022/06/06 12:02:14;;;;;;;;;;;;;;;16.08;74.17;101070.84;5043455;28;19921;-82
2022/06/06 12:04:58;;;;;;;;;;;;;;;16.07;73.00;101066.56;5038791;28;19947;-82
2022/06/06 12:07:35;;;;;;;;;;;;;;;16.20;74.54;101059.03;5047122;28;19925;-82
2022/06/06 12:10:04;;;;;;;;;;;;;;;16.35;72.41;101048.81;5049557;28;19924;-82
2022/06/06 12:12:32;;;;;;;;;;;;;;;16.37;74.21;101048.75;5050996;28;19921;-82
2022/06/06 12:15:09;;;;;;;;;;;;;;;16.49;71.03;101040.41;5053004;28;20037;-82
2022/06/06 12:17:44;;;;;;;;;;;;;;;16.55;71.52;101036.66;5049243;28;19935;-82
2022/06/06 12:20:12;;;;;;;;;;;;;;;16.56;70.88;101036.59;5048582;28;19960;-82
2022/06/06 12:22:46;;;;;;;;;;;;;;;16.58;70.74;101034.75;5033842;28;20275;-82
2022/06/06 12:25:14;;;;;;;;;;;;;;;16.57;64.82;101024.31;5048072;28;19936;-82
2022/06/06 12:27:42;;;;;;;;;;;;;;;16.55;66.15;101026.19;5046017;28;20534;-82
2022/06/06 12:30:07;;;;;;;;;;;;;;;16.56;64.34;101027.84;5045303;28;19955;-82
2022/06/06 12:32:35;;;;;;;;;;;;;;;16.57;66.67;101025.19;5048679;28;20358;-82
2022/06/06 12:35:08;;;;;;;;;;;;;;;16.63;66.33;101029.31;5046691;28;20352;-82
2022/06/06 12:37:36;;;;;;;;;;;;;;;16.66;61.04;101009.06;5045119;28;20481;-82
2022/06/06 12:40:14;;;;;;;;;;;;;;;16.67;63.08;101015.16;5046406;28;20413;-77
2022/06/06 12:42:55;;;;;;;;;;;;;;;16.77;60.52;101011.25;5041847;28;19921;-76
2022/06/06 12:45:41;;;;;;;;;;;;;;;16.90;65.04;101009.81;5042497;28;20382;-76
2022/06/06 12:48:06;;;;;;;;;;;;;;;17.02;62.85;101007.53;5040661;28;20011;-75
2022/06/06 12:50:35;;;;;;;;;;;;;;;17.15;60.56;100993.84;5049755;28;20018;-77
2022/06/06 12:53:15;;;;;;;;;;;;;;;17.13;61.83;101000.94;5039935;28;19925;-77
2022/06/06 12:56:24;;;;;;;;;;;;;;;17.22;58.88;100987.41;5047244;28;19936;-77
2022/06/06 12:58:39;;;;;;;;;;;;;;;17.21;60.45;100990.94;5036788;28;19917;-77
2022/06/06 13:03:54;;;;;;;;;;;;;;;17.26;60.52;100992.47;5045785;28;19927;-77
2022/06/06 13:06:26;;;;;;;;;;;;;;;17.27;62.20;100986.28;5042073;28;19917;-77
2022/06/06 13:08:51;;;;;;;;;;;;;;;17.29;55.97;100970.47;5051724;28;19921;-77
2022/06/06 13:11:45;;;;;;;;;;;;;;;17.30;57.43;100974.78;5046904;28;20360;-80
2022/06/06 13:14:17;;;;;;;;;;;;;;;17.39;56.86;100975.22;5020734;28;19999;-82
2022/06/06 13:16:45;;;;;;;;;;;;;;;17.31;56.35;100969.47;5038347;28;20692;-82
2022/06/06 13:19:16;;;;;;;;;;;;;;;17.21;58.37;100972.56;5040754;28;19935;-82
2022/06/06 13:21:42;;;;;;;;;;;;;;;17.20;60.15;100976.97;5042504;28;19928;-83
2022/06/06 13:24:07;;;;;;;;;;;;;;;17.35;57.79;100968.38;5048644;28;20645;-83
2022/06/06 13:26:33;;;;;;;;;;;;;;;17.55;51.35;100965.72;5031103;28;19928;-83
2022/06/06 13:28:58;;;;;;;;;;;;;;;17.82;52.70;100973.25;5050849;28;20051;-83